createdAt,value
2017-03-06T00:00:00.671Z,0
2017-03-06T00:01:09.665Z,0
2017-03-06T00:02:18.812Z,0
2017-03-06T00:03:28.043Z,0
2017-03-06T00:04:37.048Z,0
2017-03-06T00:05:46.028Z,0
2017-03-06T00:06:55.002Z,0
2017-03-06T00:08:04.026Z,0
2017-03-06T00:09:13.255Z,0
2017-03-06T00:10:22.255Z,0
2017-03-06T00:11:31.289Z,0
2017-03-06T00:12:40.346Z,0
2017-03-06T00:13:49.329Z,0
2017-03-06T00:14:58.686Z,0
2017-03-06T00:16:07.750Z,0
2017-03-06T00:17:17.153Z,0
2017-03-06T00:18:26.135Z,0
2017-03-06T00:19:35.259Z,0
2017-03-06T00:20:44.508Z,0
2017-03-06T00:21:53.573Z,0
2017-03-06T00:23:02.560Z,0
2017-03-06T00:24:11.546Z,0
2017-03-06T00:25:20.537Z,0
2017-03-06T00:26:29.861Z,0
2017-03-06T00:27:38.872Z,0
2017-03-06T00:28:47.939Z,0
2017-03-06T00:29:57.117Z,0
2017-03-06T00:31:06.110Z,0
2017-03-06T00:32:15.477Z,0
2017-03-06T00:33:24.462Z,0
2017-03-06T00:34:35.976Z,0
2017-03-06T00:35:45.459Z,0
2017-03-06T00:36:55.624Z,0
2017-03-06T00:38:06.654Z,0
2017-03-06T00:39:17.333Z,0
2017-03-06T00:40:28.863Z,0
2017-03-06T00:41:39.667Z,0
2017-03-06T00:42:48.997Z,0
2017-03-06T00:43:59.288Z,0
2017-03-06T00:45:09.516Z,0
2017-03-06T00:46:20.553Z,0
2017-03-06T00:47:30.795Z,0
2017-03-06T00:48:39.916Z,0
2017-03-06T00:49:49.736Z,0
2017-03-06T00:50:58.798Z,0
2017-03-06T00:52:09.002Z,0
2017-03-06T00:53:18.005Z,0
2017-03-06T00:54:28.291Z,0
2017-03-06T00:55:38.975Z,0
2017-03-06T00:56:48.987Z,0
2017-03-06T00:57:58.923Z,0
2017-03-06T00:59:08.664Z,0
2017-03-06T01:00:18.392Z,0
2017-03-06T01:01:28.654Z,0
2017-03-06T01:02:38.968Z,0
2017-03-06T01:03:49.473Z,0
2017-03-06T01:04:59.935Z,0
2017-03-06T01:06:10.484Z,0
2017-03-06T01:07:20.552Z,0
2017-03-06T01:08:31.558Z,0
2017-03-06T01:09:41.428Z,0
2017-03-06T01:10:50.422Z,0
2017-03-06T01:12:00.562Z,0
2017-03-06T01:13:11.626Z,0
2017-03-06T01:14:23.435Z,0
2017-03-06T01:15:33.753Z,0
2017-03-06T01:16:43.708Z,0
2017-03-06T01:17:54.897Z,0
2017-03-06T01:19:07.015Z,0
2017-03-06T01:20:18.524Z,0
2017-03-06T01:21:29.501Z,0
2017-03-06T01:22:39.635Z,0
2017-03-06T01:23:51.974Z,0
2017-03-06T01:25:03.225Z,0
2017-03-06T01:26:13.124Z,0
2017-03-06T01:27:25.361Z,0
2017-03-06T01:28:35.999Z,0
2017-03-06T01:29:47.516Z,0
2017-03-06T01:30:59.408Z,0
2017-03-06T01:32:11.643Z,0
2017-03-06T01:33:23.244Z,0
2017-03-06T01:34:35.293Z,0
2017-03-06T01:35:51.402Z,0
2017-03-06T01:37:03.648Z,0
2017-03-06T01:38:16.880Z,0
2017-03-06T01:39:30.469Z,0
2017-03-06T01:40:40.211Z,0
2017-03-06T01:41:49.684Z,0
2017-03-06T01:43:03.067Z,0
2017-03-06T01:44:13.711Z,0
2017-03-06T01:45:24.225Z,0
2017-03-06T01:46:36.990Z,0
2017-03-06T01:47:47.807Z,0
2017-03-06T01:48:57.231Z,0
2017-03-06T01:50:06.231Z,0
2017-03-06T01:51:15.256Z,0
2017-03-06T01:52:24.241Z,0
2017-03-06T01:53:33.464Z,0
2017-03-06T01:54:42.445Z,0
2017-03-06T01:55:51.432Z,0
2017-03-06T01:57:00.426Z,0
2017-03-06T01:58:09.463Z,0
2017-03-06T01:59:18.777Z,0
2017-03-06T02:00:27.775Z,0
2017-03-06T02:01:36.751Z,0
2017-03-06T02:02:45.749Z,0
2017-03-06T02:03:54.805Z,0
2017-03-06T02:05:04.069Z,0
2017-03-06T02:06:13.059Z,0
2017-03-06T02:07:22.060Z,0
2017-03-06T02:08:31.030Z,0
2017-03-06T02:09:40.004Z,0
2017-03-06T02:10:49.232Z,0
2017-03-06T02:11:58.331Z,0
2017-03-06T02:13:07.317Z,0
2017-03-06T02:14:16.384Z,0
2017-03-06T02:15:25.455Z,0
2017-03-06T02:16:34.683Z,0
2017-03-06T02:17:43.668Z,0
2017-03-06T02:18:52.653Z,0
2017-03-06T02:20:01.650Z,0
2017-03-06T02:21:10.650Z,0
2017-03-06T02:22:19.895Z,0
2017-03-06T02:23:28.970Z,0
2017-03-06T02:24:37.955Z,0
2017-03-06T02:25:47.014Z,0
2017-03-06T02:26:56.106Z,0
2017-03-06T02:28:05.336Z,0
2017-03-06T02:29:14.309Z,0
2017-03-06T02:30:23.461Z,0
2017-03-06T02:31:32.463Z,0
2017-03-06T02:32:41.439Z,0
2017-03-06T02:33:50.691Z,0
2017-03-06T02:34:59.672Z,0
2017-03-06T02:36:08.650Z,0
2017-03-06T02:37:17.635Z,0
2017-03-06T02:38:26.637Z,0
2017-03-06T02:39:36.344Z,0
2017-03-06T02:40:45.319Z,0
2017-03-06T02:41:54.291Z,0
2017-03-06T02:43:03.294Z,0
2017-03-06T02:44:12.275Z,0
2017-03-06T02:45:21.588Z,0
2017-03-06T02:46:30.643Z,0
2017-03-06T02:47:39.794Z,0
2017-03-06T02:48:48.798Z,0
2017-03-06T02:49:57.806Z,0
2017-03-06T02:51:07.457Z,0
2017-03-06T02:52:16.436Z,0
2017-03-06T02:53:25.500Z,0
2017-03-06T02:54:34.485Z,0
2017-03-06T02:55:43.457Z,0
2017-03-06T02:56:52.689Z,0
2017-03-06T02:58:01.675Z,0
2017-03-06T02:59:10.676Z,0
2017-03-06T03:00:19.678Z,0
2017-03-06T03:01:28.653Z,0
2017-03-06T03:02:38.348Z,0
2017-03-06T03:03:47.345Z,0
2017-03-06T03:04:56.330Z,0
2017-03-06T03:06:05.477Z,0
2017-03-06T03:07:14.862Z,0
2017-03-06T03:08:24.110Z,0
2017-03-06T03:09:33.080Z,0
2017-03-06T03:10:42.141Z,0
2017-03-06T03:11:51.120Z,0
2017-03-06T03:13:00.122Z,0
2017-03-06T03:14:09.363Z,0
2017-03-06T03:15:18.350Z,0
2017-03-06T03:16:27.330Z,0
2017-03-06T03:17:36.309Z,0
2017-03-06T03:18:45.395Z,0
2017-03-06T03:19:54.634Z,0
2017-03-06T03:21:03.621Z,0
2017-03-06T03:22:12.596Z,0
2017-03-06T03:23:21.568Z,0
2017-03-06T03:24:30.553Z,0
2017-03-06T03:25:39.786Z,0
2017-03-06T03:26:48.777Z,0
2017-03-06T03:27:57.750Z,0
2017-03-06T03:29:06.720Z,0
2017-03-06T03:30:15.691Z,0
2017-03-06T03:31:24.923Z,0
2017-03-06T03:32:34.004Z,0
2017-03-06T03:33:42.991Z,0
2017-03-06T03:34:52.409Z,0
2017-03-06T03:36:01.388Z,0
2017-03-06T03:37:10.610Z,0
2017-03-06T03:38:19.602Z,0
2017-03-06T03:39:28.590Z,0
2017-03-06T03:40:37.565Z,0
2017-03-06T03:41:46.563Z,0
2017-03-06T03:42:55.839Z,0
2017-03-06T03:44:04.831Z,0
2017-03-06T03:45:13.815Z,0
2017-03-06T03:46:22.809Z,0
2017-03-06T03:47:31.786Z,0
2017-03-06T03:48:41.020Z,0
2017-03-06T03:49:50.021Z,0
2017-03-06T03:50:59.003Z,0
2017-03-06T03:52:08.002Z,0
2017-03-06T03:53:16.977Z,0
2017-03-06T03:54:26.226Z,0
2017-03-06T03:55:35.300Z,0
2017-03-06T03:56:44.297Z,0
2017-03-06T03:57:53.693Z,0
2017-03-06T03:59:02.675Z,0
2017-03-06T04:00:11.932Z,0
2017-03-06T04:01:20.927Z,0
2017-03-06T04:02:29.910Z,0
2017-03-06T04:03:38.893Z,0
2017-03-06T04:04:48.285Z,0
2017-03-06T04:05:57.627Z,0
2017-03-06T04:07:06.628Z,0
2017-03-06T04:08:15.609Z,0
2017-03-06T04:09:24.596Z,0
2017-03-06T04:10:33.585Z,0
2017-03-06T04:11:42.964Z,0
2017-03-06T04:12:51.965Z,0
2017-03-06T04:14:00.941Z,0
2017-03-06T04:15:09.916Z,0
2017-03-06T04:16:19.411Z,0
2017-03-06T04:17:28.659Z,0
2017-03-06T04:18:37.625Z,0
2017-03-06T04:19:46.609Z,0
2017-03-06T04:20:55.601Z,0
2017-03-06T04:22:04.580Z,0
2017-03-06T04:23:13.814Z,0
2017-03-06T04:24:22.803Z,0
2017-03-06T04:25:31.879Z,0
2017-03-06T04:26:40.849Z,0
2017-03-06T04:27:49.825Z,0
2017-03-06T04:28:59.134Z,0
2017-03-06T04:30:08.217Z,0
2017-03-06T04:31:17.618Z,0
2017-03-06T04:32:26.596Z,0
2017-03-06T04:33:35.574Z,0
2017-03-06T04:34:44.819Z,0
2017-03-06T04:35:53.799Z,0
2017-03-06T04:37:02.862Z,0
2017-03-06T04:38:11.922Z,0
2017-03-06T04:39:20.904Z,0
2017-03-06T04:40:30.131Z,0
2017-03-06T04:41:39.150Z,0
2017-03-06T04:42:48.136Z,0
2017-03-06T04:43:57.120Z,0
2017-03-06T04:45:06.089Z,0
2017-03-06T04:46:15.321Z,0
2017-03-06T04:47:24.715Z,0
2017-03-06T04:48:33.698Z,0
2017-03-06T04:49:42.676Z,0
2017-03-06T04:50:51.680Z,0
2017-03-06T04:52:00.954Z,0
2017-03-06T04:53:09.947Z,0
2017-03-06T04:54:18.920Z,0
2017-03-06T04:55:27.988Z,0
2017-03-06T04:56:36.973Z,0
2017-03-06T04:57:46.273Z,0
2017-03-06T04:58:55.255Z,0
2017-03-06T05:00:04.236Z,0
2017-03-06T05:01:13.230Z,0
2017-03-06T05:02:22.229Z,0
2017-03-06T05:03:31.506Z,0
2017-03-06T05:04:40.495Z,0
2017-03-06T05:05:49.553Z,0
2017-03-06T05:06:58.537Z,0
2017-03-06T05:08:07.531Z,0
2017-03-06T05:09:16.761Z,0
2017-03-06T05:10:25.930Z,0
2017-03-06T05:11:34.911Z,0
2017-03-06T05:12:44.307Z,0
2017-03-06T05:13:53.279Z,0
2017-03-06T05:15:02.663Z,0
2017-03-06T05:16:11.631Z,0
2017-03-06T05:17:20.628Z,0
2017-03-06T05:18:29.621Z,0
2017-03-06T05:19:38.609Z,0
2017-03-06T05:20:48.247Z,0
2017-03-06T05:21:57.240Z,0
2017-03-06T05:23:06.955Z,0
2017-03-06T05:24:15.941Z,0
2017-03-06T05:25:24.933Z,0
2017-03-06T05:26:34.214Z,0
2017-03-06T05:27:43.369Z,0
2017-03-06T05:28:52.443Z,0
2017-03-06T05:30:01.416Z,0
2017-03-06T05:31:10.398Z,0
2017-03-06T05:32:19.795Z,0
2017-03-06T05:33:28.769Z,0
2017-03-06T05:34:37.757Z,0
2017-03-06T05:35:46.832Z,0
2017-03-06T05:36:55.805Z,0
2017-03-06T05:38:05.039Z,0
2017-03-06T05:39:14.122Z,0
2017-03-06T05:40:23.140Z,0
2017-03-06T05:41:32.127Z,0
2017-03-06T05:42:41.133Z,0
2017-03-06T05:43:50.376Z,0
2017-03-06T05:44:59.385Z,0
2017-03-06T05:46:08.380Z,5
2017-03-06T05:47:17.372Z,5
2017-03-06T05:48:26.459Z,5
2017-03-06T05:49:35.777Z,5
2017-03-06T05:50:44.871Z,5
2017-03-06T05:51:53.854Z,5
2017-03-06T05:53:02.932Z,5
2017-03-06T05:54:12.328Z,5
2017-03-06T05:55:21.554Z,5
2017-03-06T05:56:30.533Z,5
2017-03-06T05:57:39.608Z,10
2017-03-06T05:58:48.590Z,10
2017-03-06T05:59:57.562Z,10
2017-03-06T06:01:06.862Z,10
2017-03-06T06:02:16.264Z,10
2017-03-06T06:03:25.329Z,10
2017-03-06T06:04:34.318Z,15
2017-03-06T06:05:43.304Z,15
2017-03-06T06:06:52.534Z,15
2017-03-06T06:08:01.517Z,15
2017-03-06T06:09:10.491Z,15
2017-03-06T06:10:19.477Z,15
2017-03-06T06:11:28.468Z,15
2017-03-06T06:12:37.727Z,20
2017-03-06T06:13:46.725Z,20
2017-03-06T06:14:55.705Z,20
2017-03-06T06:16:04.677Z,20
2017-03-06T06:17:13.648Z,20
2017-03-06T06:18:23.358Z,20
2017-03-06T06:19:32.387Z,25
2017-03-06T06:20:41.359Z,25
2017-03-06T06:21:50.357Z,25
2017-03-06T06:22:59.341Z,25
2017-03-06T06:24:08.599Z,30
2017-03-06T06:25:18.064Z,30
2017-03-06T06:26:27.055Z,30
2017-03-06T06:27:36.034Z,30
2017-03-06T06:28:45.009Z,30
2017-03-06T06:29:54.460Z,30
2017-03-06T06:31:03.460Z,30
2017-03-06T06:32:12.429Z,30
2017-03-06T06:33:21.501Z,35
2017-03-06T06:34:30.486Z,35
2017-03-06T06:35:39.785Z,35
2017-03-06T06:36:48.766Z,35
2017-03-06T06:37:57.763Z,35
2017-03-06T06:39:06.787Z,35
2017-03-06T06:40:15.756Z,40
2017-03-06T06:41:25.069Z,40
2017-03-06T06:42:34.066Z,40
2017-03-06T06:43:43.143Z,40
2017-03-06T06:44:52.221Z,40
2017-03-06T06:46:01.204Z,40
2017-03-06T06:47:10.439Z,45
2017-03-06T06:48:19.407Z,45
2017-03-06T06:49:28.387Z,45
2017-03-06T06:50:37.453Z,45
2017-03-06T06:51:46.434Z,50
2017-03-06T06:52:55.658Z,50
2017-03-06T06:54:04.718Z,50
2017-03-06T06:55:13.688Z,50
2017-03-06T06:56:23.521Z,50
2017-03-06T06:57:32.505Z,55
2017-03-06T06:58:41.737Z,55
2017-03-06T06:59:50.714Z,55
2017-03-06T07:00:59.692Z,60
2017-03-06T07:02:08.766Z,60
2017-03-06T07:03:17.752Z,60
2017-03-06T07:04:27.114Z,65
2017-03-06T07:05:36.122Z,65
2017-03-06T07:06:45.119Z,65
2017-03-06T07:07:54.583Z,70
2017-03-06T07:09:03.645Z,70
2017-03-06T07:10:13.339Z,75
2017-03-06T07:11:22.319Z,75
2017-03-06T07:12:31.339Z,75
2017-03-06T07:13:40.356Z,75
2017-03-06T07:14:49.351Z,80
2017-03-06T07:15:59.418Z,80
2017-03-06T07:17:08.403Z,80
2017-03-06T07:18:17.392Z,80
2017-03-06T07:19:26.374Z,80
2017-03-06T07:20:35.458Z,80
2017-03-06T07:21:44.691Z,80
2017-03-06T07:22:53.686Z,80
2017-03-06T07:24:02.892Z,85
2017-03-06T07:25:12.013Z,85
2017-03-06T07:26:21.046Z,85
2017-03-06T07:27:30.313Z,85
2017-03-06T07:28:39.300Z,85
2017-03-06T07:29:48.289Z,85
2017-03-06T07:30:57.378Z,85
2017-03-06T07:32:06.447Z,85
2017-03-06T07:33:15.765Z,85
2017-03-06T07:34:24.902Z,90
2017-03-06T07:35:33.938Z,90
2017-03-06T07:36:43.368Z,90
2017-03-06T07:37:52.499Z,85
2017-03-06T07:39:01.750Z,85
2017-03-06T07:40:10.784Z,85
2017-03-06T07:41:19.767Z,85
2017-03-06T07:42:28.765Z,85
2017-03-06T07:43:37.753Z,85
2017-03-06T07:44:47.067Z,85
2017-03-06T07:45:56.372Z,85
2017-03-06T07:47:05.444Z,85
2017-03-06T07:48:14.499Z,85
2017-03-06T07:49:23.576Z,85
2017-03-06T07:50:32.859Z,85
2017-03-06T07:51:42.025Z,85
2017-03-06T07:52:51.034Z,85
2017-03-06T07:54:00.019Z,85
2017-03-06T07:55:09.007Z,85
2017-03-06T07:56:18.244Z,85
2017-03-06T07:57:27.235Z,85
2017-03-06T07:58:36.463Z,85
2017-03-06T07:59:45.448Z,85
2017-03-06T08:00:54.529Z,85
2017-03-06T08:02:03.892Z,85
2017-03-06T08:03:12.999Z,90
2017-03-06T08:04:21.978Z,85
2017-03-06T08:05:31.014Z,85
2017-03-06T08:06:40.019Z,90
2017-03-06T08:07:49.438Z,90
2017-03-06T08:08:58.522Z,85
2017-03-06T08:10:07.521Z,85
2017-03-06T08:11:16.506Z,90
2017-03-06T08:12:25.479Z,90
2017-03-06T08:13:34.803Z,90
2017-03-06T08:14:43.796Z,90
2017-03-06T08:15:53.026Z,90
2017-03-06T08:17:02.010Z,90
2017-03-06T08:18:11.000Z,90
2017-03-06T08:19:20.336Z,90
2017-03-06T08:20:29.462Z,90
2017-03-06T08:21:38.463Z,90
2017-03-06T08:22:47.509Z,95
2017-03-06T08:23:57.077Z,95
2017-03-06T08:25:06.477Z,100
2017-03-06T08:26:15.536Z,100
2017-03-06T08:27:24.631Z,105
2017-03-06T08:28:33.688Z,105
2017-03-06T08:29:42.923Z,110
2017-03-06T08:30:52.184Z,110
2017-03-06T08:32:01.279Z,110
2017-03-06T08:33:10.335Z,115
2017-03-06T08:34:19.911Z,115
2017-03-06T08:35:28.896Z,120
2017-03-06T08:36:38.116Z,120
2017-03-06T08:37:47.468Z,125
2017-03-06T08:38:57.287Z,125
2017-03-06T08:40:06.275Z,125
2017-03-06T08:41:15.274Z,130
2017-03-06T08:42:24.606Z,135
2017-03-06T08:43:33.754Z,135
2017-03-06T08:44:43.265Z,140
2017-03-06T08:45:52.273Z,140
2017-03-06T08:47:01.285Z,140
2017-03-06T08:48:10.651Z,145
2017-03-06T08:49:19.636Z,145
2017-03-06T08:50:28.621Z,145
2017-03-06T08:51:37.618Z,145
2017-03-06T08:52:46.712Z,145
2017-03-06T08:53:56.212Z,145
2017-03-06T08:55:05.276Z,140
2017-03-06T08:56:14.474Z,140
2017-03-06T08:57:23.528Z,140
2017-03-06T08:58:32.614Z,140
2017-03-06T08:59:42.390Z,140
2017-03-06T09:00:51.550Z,140
2017-03-06T09:02:00.535Z,140
2017-03-06T09:03:09.590Z,140
2017-03-06T09:04:18.686Z,140
2017-03-06T09:05:27.986Z,140
2017-03-06T09:06:37.095Z,140
2017-03-06T09:07:46.083Z,140
2017-03-06T09:08:55.084Z,140
2017-03-06T09:10:04.638Z,145
2017-03-06T09:11:13.943Z,145
2017-03-06T09:12:22.971Z,145
2017-03-06T09:13:32.039Z,145
2017-03-06T09:14:41.208Z,145
2017-03-06T09:15:50.214Z,150
2017-03-06T09:16:59.445Z,150
2017-03-06T09:18:08.545Z,150
2017-03-06T09:19:17.515Z,150
2017-03-06T09:20:26.579Z,155
2017-03-06T09:21:35.981Z,155
2017-03-06T09:22:45.258Z,155
2017-03-06T09:23:54.243Z,150
2017-03-06T09:25:03.268Z,150
2017-03-06T09:26:12.420Z,155
2017-03-06T09:27:21.415Z,155
2017-03-06T09:28:30.838Z,150
2017-03-06T09:29:39.888Z,150
2017-03-06T09:30:49.007Z,145
2017-03-06T09:31:58.002Z,145
2017-03-06T09:33:07.089Z,145
2017-03-06T09:34:16.553Z,145
2017-03-06T09:35:25.530Z,145
2017-03-06T09:36:34.643Z,145
2017-03-06T09:37:43.706Z,140
2017-03-06T09:38:52.695Z,135
2017-03-06T09:40:02.414Z,130
2017-03-06T09:41:11.396Z,125
2017-03-06T09:42:20.409Z,120
2017-03-06T09:43:29.400Z,115
2017-03-06T09:44:38.470Z,115
2017-03-06T09:45:48.194Z,115
2017-03-06T09:46:57.196Z,115
2017-03-06T09:48:06.192Z,115
2017-03-06T09:49:15.264Z,110
2017-03-06T09:50:24.244Z,110
2017-03-06T09:51:33.557Z,105
2017-03-06T09:52:42.701Z,105
2017-03-06T09:53:51.773Z,105
2017-03-06T09:55:01.029Z,105
2017-03-06T09:56:10.134Z,110
2017-03-06T09:57:19.583Z,115
2017-03-06T09:58:28.571Z,120
2017-03-06T09:59:37.642Z,125
2017-03-06T10:00:46.625Z,125
2017-03-06T10:01:55.783Z,130
2017-03-06T10:03:05.040Z,130
2017-03-06T10:04:14.069Z,130
2017-03-06T10:05:23.112Z,130
2017-03-06T10:06:32.095Z,130
2017-03-06T10:07:41.088Z,130
2017-03-06T10:08:50.382Z,130
2017-03-06T10:09:59.382Z,125
2017-03-06T10:11:08.389Z,125
2017-03-06T10:12:17.548Z,125
2017-03-06T10:13:27.086Z,125
2017-03-06T10:14:36.464Z,130
2017-03-06T10:15:45.652Z,130
2017-03-06T10:16:54.677Z,130
2017-03-06T10:18:03.660Z,130
2017-03-06T10:19:12.656Z,130
2017-03-06T10:20:21.977Z,130
2017-03-06T10:21:30.968Z,130
2017-03-06T10:22:39.982Z,130
2017-03-06T10:23:49.137Z,125
2017-03-06T10:24:58.199Z,115
2017-03-06T10:26:07.443Z,115
2017-03-06T10:27:16.497Z,120
2017-03-06T10:28:25.569Z,130
2017-03-06T10:29:34.964Z,135
2017-03-06T10:30:44.041Z,145
2017-03-06T10:31:53.696Z,150
2017-03-06T10:33:02.693Z,150
2017-03-06T10:34:11.851Z,150
2017-03-06T10:35:21.282Z,150
2017-03-06T10:36:30.283Z,150
2017-03-06T10:37:39.580Z,150
2017-03-06T10:38:48.652Z,150
2017-03-06T10:39:57.679Z,150
2017-03-06T10:41:06.760Z,150
2017-03-06T10:42:15.802Z,150
2017-03-06T10:43:25.103Z,150
2017-03-06T10:44:34.771Z,150
2017-03-06T10:45:43.941Z,150
2017-03-06T10:46:52.994Z,150
2017-03-06T10:48:02.016Z,150
2017-03-06T10:49:12.381Z,150
2017-03-06T10:50:21.361Z,150
2017-03-06T10:51:30.338Z,150
2017-03-06T10:52:39.326Z,150
2017-03-06T10:53:48.306Z,145
2017-03-06T10:54:57.552Z,145
2017-03-06T10:56:16.761Z,140
2017-03-06T10:57:26.944Z,135
2017-03-06T10:58:35.958Z,130
2017-03-06T10:59:44.944Z,125
2017-03-06T11:00:54.232Z,120
2017-03-06T11:02:03.235Z,110
2017-03-06T11:03:12.221Z,110
2017-03-06T11:04:21.220Z,110
2017-03-06T11:05:30.199Z,105
2017-03-06T11:06:39.430Z,105
2017-03-06T11:07:48.493Z,105
2017-03-06T11:08:57.488Z,105
2017-03-06T11:10:06.517Z,100
2017-03-06T11:11:15.506Z,105
2017-03-06T11:12:24.742Z,105
2017-03-06T11:13:33.739Z,110
2017-03-06T11:14:42.762Z,110
2017-03-06T11:15:51.739Z,115
2017-03-06T11:17:00.732Z,120
2017-03-06T11:18:09.965Z,120
2017-03-06T11:19:18.957Z,125
2017-03-06T11:20:27.935Z,130
2017-03-06T11:21:36.914Z,135
2017-03-06T11:22:46.037Z,135
2017-03-06T11:23:56.003Z,135
2017-03-06T11:25:05.109Z,140
2017-03-06T11:26:14.097Z,140
2017-03-06T11:27:23.077Z,140
2017-03-06T11:28:32.066Z,140
2017-03-06T11:29:41.363Z,140
2017-03-06T11:30:50.352Z,135
2017-03-06T11:31:59.358Z,135
2017-03-06T11:33:08.356Z,135
2017-03-06T11:34:17.357Z,140
2017-03-06T11:35:26.583Z,140
2017-03-06T11:36:35.583Z,135
2017-03-06T11:37:44.555Z,135
2017-03-06T11:38:53.634Z,135
2017-03-06T11:40:02.648Z,140
2017-03-06T11:41:11.940Z,140
2017-03-06T11:42:21.037Z,145
2017-03-06T11:43:30.504Z,145
2017-03-06T11:44:39.499Z,145
2017-03-06T11:45:48.738Z,150
2017-03-06T11:46:58.025Z,150
2017-03-06T11:48:07.029Z,155
2017-03-06T11:49:16.021Z,155
2017-03-06T11:50:25.182Z,155
2017-03-06T11:51:34.169Z,160
2017-03-06T11:52:43.922Z,155
2017-03-06T11:53:52.991Z,155
2017-03-06T11:55:02.053Z,155
2017-03-06T11:56:11.187Z,155
2017-03-06T11:57:20.225Z,150
2017-03-06T11:58:29.748Z,150
2017-03-06T11:59:38.759Z,150
2017-03-06T12:00:47.938Z,150
2017-03-06T12:01:56.933Z,145
2017-03-06T12:03:06.003Z,145
2017-03-06T12:04:15.285Z,140
2017-03-06T12:05:24.354Z,140
2017-03-06T12:06:33.457Z,135
2017-03-06T12:07:42.464Z,135
2017-03-06T12:08:51.458Z,135
2017-03-06T12:10:01.159Z,135
2017-03-06T12:11:10.170Z,130
2017-03-06T12:12:19.141Z,130
2017-03-06T12:13:28.184Z,130
2017-03-06T12:14:37.260Z,125
2017-03-06T12:15:46.530Z,125
2017-03-06T12:16:55.528Z,125
2017-03-06T12:18:04.620Z,120
2017-03-06T12:19:13.628Z,120
2017-03-06T12:20:22.648Z,120
2017-03-06T12:21:31.972Z,115
2017-03-06T12:22:40.975Z,110
2017-03-06T12:23:49.978Z,100
2017-03-06T12:24:59.003Z,95
2017-03-06T12:26:08.005Z,90
2017-03-06T12:27:17.724Z,90
2017-03-06T12:28:26.734Z,90
2017-03-06T12:29:35.769Z,95
2017-03-06T12:30:45.196Z,90
2017-03-06T12:31:54.205Z,90
2017-03-06T12:33:03.498Z,90
2017-03-06T12:34:12.563Z,85
2017-03-06T12:35:21.550Z,80
2017-03-06T12:36:30.528Z,75
2017-03-06T12:37:39.523Z,80
2017-03-06T12:38:48.848Z,80
2017-03-06T12:39:57.842Z,80
2017-03-06T12:41:06.819Z,80
2017-03-06T12:42:15.812Z,80
2017-03-06T12:43:24.797Z,80
2017-03-06T12:44:34.562Z,85
2017-03-06T12:45:43.646Z,80
2017-03-06T12:46:52.657Z,75
2017-03-06T12:48:01.682Z,70
2017-03-06T12:49:10.773Z,65
2017-03-06T12:50:20.086Z,60
2017-03-06T12:51:29.105Z,65
2017-03-06T12:52:38.100Z,75
2017-03-06T12:53:47.579Z,85
2017-03-06T12:54:56.667Z,90
2017-03-06T12:56:07.106Z,90
2017-03-06T12:57:16.574Z,90
2017-03-06T12:58:25.583Z,95
2017-03-06T12:59:34.596Z,105
2017-03-06T13:00:43.592Z,115
2017-03-06T13:01:52.983Z,130
2017-03-06T13:03:01.958Z,145
2017-03-06T13:04:10.960Z,155
2017-03-06T13:05:20.032Z,155
2017-03-06T13:06:29.011Z,155
2017-03-06T13:07:38.414Z,155
2017-03-06T13:08:47.503Z,155
2017-03-06T13:09:56.597Z,150
2017-03-06T13:11:05.676Z,145
2017-03-06T13:12:14.682Z,145
2017-03-06T13:13:23.970Z,135
2017-03-06T13:14:32.948Z,135
2017-03-06T13:15:42.013Z,135
2017-03-06T13:16:51.262Z,135
2017-03-06T13:18:00.544Z,135
2017-03-06T13:19:09.849Z,135
2017-03-06T13:20:18.827Z,140
2017-03-06T13:21:28.312Z,140
2017-03-06T13:22:37.362Z,145
2017-03-06T13:23:46.414Z,145
2017-03-06T13:24:55.734Z,145
2017-03-06T13:26:04.933Z,140
2017-03-06T13:27:14.430Z,135
2017-03-06T13:28:23.490Z,135
2017-03-06T13:29:32.558Z,135
2017-03-06T13:30:42.599Z,140
2017-03-06T13:31:52.102Z,150
2017-03-06T13:33:01.082Z,160
2017-03-06T13:34:10.090Z,165
2017-03-06T13:35:19.153Z,170
2017-03-06T13:36:28.866Z,175
2017-03-06T13:37:37.877Z,175
2017-03-06T13:38:46.852Z,180
2017-03-06T13:39:55.934Z,175
2017-03-06T13:41:04.931Z,180
2017-03-06T13:42:14.232Z,175
2017-03-06T13:43:23.223Z,170
2017-03-06T13:44:32.287Z,160
2017-03-06T13:45:41.273Z,160
2017-03-06T13:46:50.250Z,150
2017-03-06T13:48:00.229Z,140
2017-03-06T13:49:09.203Z,135
2017-03-06T13:50:18.597Z,125
2017-03-06T13:51:27.611Z,120
2017-03-06T13:52:36.621Z,110
2017-03-06T13:53:45.898Z,105
2017-03-06T13:54:54.871Z,95
2017-03-06T13:56:03.931Z,90
2017-03-06T13:57:12.918Z,85
2017-03-06T13:58:21.930Z,85
2017-03-06T13:59:31.204Z,85
2017-03-06T14:00:40.602Z,80
2017-03-06T14:01:49.592Z,75
2017-03-06T14:02:58.582Z,70
2017-03-06T14:04:07.566Z,70
2017-03-06T14:05:16.810Z,70
2017-03-06T14:06:25.889Z,70
2017-03-06T14:07:34.892Z,70
2017-03-06T14:08:43.887Z,65
2017-03-06T14:09:52.882Z,65
2017-03-06T14:11:02.136Z,60
2017-03-06T14:12:11.149Z,60
2017-03-06T14:13:20.123Z,60
2017-03-06T14:14:29.101Z,60
2017-03-06T14:15:38.512Z,60
2017-03-06T14:16:47.788Z,60
2017-03-06T14:17:56.766Z,60
2017-03-06T14:19:05.762Z,55
2017-03-06T14:20:14.870Z,55
2017-03-06T14:21:23.861Z,55
2017-03-06T14:22:33.134Z,55
2017-03-06T14:23:42.111Z,50
2017-03-06T14:24:51.119Z,50
2017-03-06T14:26:00.113Z,45
2017-03-06T14:27:09.191Z,45
2017-03-06T14:28:18.567Z,40
2017-03-06T14:29:27.555Z,35
2017-03-06T14:30:36.542Z,30
2017-03-06T14:31:45.849Z,30
2017-03-06T14:32:54.826Z,30
2017-03-06T14:34:04.187Z,30
2017-03-06T14:35:13.296Z,25
2017-03-06T14:36:22.500Z,20
2017-03-06T14:37:31.479Z,20
2017-03-06T14:38:40.479Z,20
2017-03-06T14:39:49.988Z,20
2017-03-06T14:40:59.007Z,20
2017-03-06T14:42:08.008Z,20
2017-03-06T14:43:17.087Z,15
2017-03-06T14:44:26.098Z,15
2017-03-06T14:45:35.401Z,15
2017-03-06T14:46:44.573Z,10
2017-03-06T14:47:53.670Z,10
2017-03-06T14:49:02.661Z,10
2017-03-06T14:50:11.665Z,10
2017-03-06T14:51:21.388Z,10
2017-03-06T14:52:30.360Z,10
2017-03-06T14:53:39.351Z,10
2017-03-06T14:54:48.413Z,10
2017-03-06T14:55:57.892Z,10
2017-03-06T14:57:07.602Z,10
2017-03-06T14:58:16.817Z,10
2017-03-06T14:59:25.798Z,10
2017-03-06T15:00:35.012Z,15
2017-03-06T15:01:44.092Z,15
2017-03-06T15:02:53.375Z,15
2017-03-06T15:04:02.355Z,15
2017-03-06T15:05:11.359Z,10
2017-03-06T15:06:20.743Z,10
2017-03-06T15:07:29.846Z,10
2017-03-06T15:08:39.216Z,10
2017-03-06T15:09:48.297Z,15
2017-03-06T15:10:57.290Z,15
2017-03-06T15:12:06.394Z,20
2017-03-06T15:13:15.475Z,20
2017-03-06T15:14:24.784Z,20
2017-03-06T15:15:33.904Z,25
2017-03-06T15:16:43.293Z,25
2017-03-06T15:17:52.284Z,30
2017-03-06T15:19:01.388Z,30
2017-03-06T15:20:10.696Z,30
2017-03-06T15:21:19.728Z,30
2017-03-06T15:22:28.824Z,30
2017-03-06T15:23:37.799Z,30
2017-03-06T15:24:46.789Z,30
2017-03-06T15:25:56.697Z,30
2017-03-06T15:27:05.839Z,30
2017-03-06T15:28:15.148Z,30
2017-03-06T15:29:24.159Z,30
2017-03-06T15:30:33.984Z,30
2017-03-06T15:31:43.258Z,30
2017-03-06T15:32:52.352Z,30
2017-03-06T15:34:01.332Z,30
2017-03-06T15:35:10.841Z,30
2017-03-06T15:36:19.855Z,30
2017-03-06T15:37:29.160Z,30
2017-03-06T15:38:38.211Z,30
2017-03-06T15:39:47.377Z,30
2017-03-06T15:40:56.406Z,30
2017-03-06T15:42:05.412Z,30
2017-03-06T15:43:14.779Z,30
2017-03-06T15:44:23.974Z,30
2017-03-06T15:45:32.961Z,30
2017-03-06T15:46:41.936Z,30
2017-03-06T15:47:51.161Z,30
2017-03-06T15:49:00.614Z,30
2017-03-06T15:50:09.818Z,30
2017-03-06T15:51:18.807Z,30
2017-03-06T15:52:27.924Z,30
2017-03-06T15:53:37.035Z,30
2017-03-06T15:54:46.438Z,30
2017-03-06T15:55:55.416Z,25
2017-03-06T15:57:04.395Z,25
2017-03-06T15:58:13.783Z,25
2017-03-06T15:59:22.771Z,25
2017-03-06T16:00:32.087Z,25
2017-03-06T16:01:41.085Z,25
2017-03-06T16:02:50.472Z,25
2017-03-06T16:03:59.991Z,25
2017-03-06T16:05:08.973Z,25
2017-03-06T16:06:18.216Z,20
2017-03-06T16:07:27.291Z,20
2017-03-06T16:08:36.688Z,20
2017-03-06T16:09:45.784Z,20
2017-03-06T16:10:54.759Z,20
2017-03-06T16:12:04.044Z,15
2017-03-06T16:13:13.036Z,15
2017-03-06T16:14:22.035Z,15
2017-03-06T16:15:31.025Z,15
2017-03-06T16:16:40.004Z,15
2017-03-06T16:17:49.239Z,15
2017-03-06T16:18:58.383Z,10
2017-03-06T16:20:07.360Z,10
2017-03-06T16:21:16.340Z,10
2017-03-06T16:22:25.352Z,10
2017-03-06T16:23:34.582Z,10
2017-03-06T16:24:43.550Z,5
2017-03-06T16:25:52.599Z,5
2017-03-06T16:27:01.677Z,5
2017-03-06T16:28:10.755Z,5
2017-03-06T16:29:20.041Z,5